sensor_id;sensor_type;location;lat;lon;timestamp;temperature;humidity
25945;SHT31;13742;49.306;8.636;2022-12-19T00:00:37;-1.73;80.40
25945;SHT31;13742;49.306;8.636;2022-12-19T00:01:37;-1.76;80.26
25945;SHT31;13742;49.306;8.636;2022-12-19T00:02:37;-1.78;80.22
25945;SHT31;13742;49.306;8.636;2022-12-19T00:03:37;-1.76;80.34
25945;SHT31;13742;49.306;8.636;2022-12-19T00:04:37;-1.76;80.23
25945;SHT31;13742;49.306;8.636;2022-12-19T00:05:39;-1.75;80.20
25945;SHT31;13742;49.306;8.636;2022-12-19T00:06:37;-1.78;80.26
25945;SHT31;13742;49.306;8.636;2022-12-19T00:07:37;-1.78;80.36
25945;SHT31;13742;49.306;8.636;2022-12-19T00:08:40;-1.78;80.31
25945;SHT31;13742;49.306;8.636;2022-12-19T00:09:37;-1.76;80.27
25945;SHT31;13742;49.306;8.636;2022-12-19T00:10:37;-1.78;80.33
25945;SHT31;13742;49.306;8.636;2022-12-19T00:11:38;-1.78;80.29
25945;SHT31;13742;49.306;8.636;2022-12-19T00:12:37;-1.79;80.36
25945;SHT31;13742;49.306;8.636;2022-12-19T00:13:37;-1.79;80.40
25945;SHT31;13742;49.306;8.636;2022-12-19T00:14:37;-1.79;80.49
25945;SHT31;13742;49.306;8.636;2022-12-19T00:15:37;-1.79;80.31
25945;SHT31;13742;49.306;8.636;2022-12-19T00:16:37;-1.76;80.38
25945;SHT31;13742;49.306;8.636;2022-12-19T00:17:37;-1.75;80.55
25945;SHT31;13742;49.306;8.636;2022-12-19T00:18:41;-1.75;80.60
25945;SHT31;13742;49.306;8.636;2022-12-19T00:19:37;-1.75;80.60
25945;SHT31;13742;49.306;8.636;2022-12-19T00:20:37;-1.73;80.52
25945;SHT31;13742;49.306;8.636;2022-12-19T00:21:37;-1.75;80.62
25945;SHT31;13742;49.306;8.636;2022-12-19T00:22:37;-1.75;80.60
25945;SHT31;13742;49.306;8.636;2022-12-19T00:23:37;-1.73;80.47
25945;SHT31;13742;49.306;8.636;2022-12-19T00:24:37;-1.70;80.45
25945;SHT31;13742;49.306;8.636;2022-12-19T00:25:37;-1.72;80.36
25945;SHT31;13742;49.306;8.636;2022-12-19T00:26:38;-1.72;80.26
25945;SHT31;13742;49.306;8.636;2022-12-19T00:27:37;-1.72;80.28
25945;SHT31;13742;49.306;8.636;2022-12-19T00:28:37;-1.72;80.33
25945;SHT31;13742;49.306;8.636;2022-12-19T00:29:37;-1.70;80.33
25945;SHT31;13742;49.306;8.636;2022-12-19T00:30:37;-1.72;80.49
25945;SHT31;13742;49.306;8.636;2022-12-19T00:31:37;-1.69;80.52
25945;SHT31;13742;49.306;8.636;2022-12-19T00:32:37;-1.72;80.40
25945;SHT31;13742;49.306;8.636;2022-12-19T00:33:37;-1.69;80.43
25945;SHT31;13742;49.306;8.636;2022-12-19T00:34:37;-1.69;80.58
25945;SHT31;13742;49.306;8.636;2022-12-19T00:35:37;-1.70;80.34
25945;SHT31;13742;49.306;8.636;2022-12-19T00:36:37;-1.68;80.37
25945;SHT31;13742;49.306;8.636;2022-12-19T00:37:37;-1.68;80.34
25945;SHT31;13742;49.306;8.636;2022-12-19T00:38:37;-1.68;80.45
25945;SHT31;13742;49.306;8.636;2022-12-19T00:39:37;-1.70;80.49
25945;SHT31;13742;49.306;8.636;2022-12-19T00:40:37;-1.68;80.48
25945;SHT31;13742;49.306;8.636;2022-12-19T00:41:38;-1.66;80.55
25945;SHT31;13742;49.306;8.636;2022-12-19T00:42:37;-1.65;80.37
25945;SHT31;13742;49.306;8.636;2022-12-19T00:43:38;-1.63;80.56
25945;SHT31;13742;49.306;8.636;2022-12-19T00:44:37;-1.66;80.55
25945;SHT31;13742;49.306;8.636;2022-12-19T00:45:37;-1.65;80.52
25945;SHT31;13742;49.306;8.636;2022-12-19T00:46:37;-1.66;80.10
25945;SHT31;13742;49.306;8.636;2022-12-19T00:47:37;-1.66;80.18
25945;SHT31;13742;49.306;8.636;2022-12-19T00:48:37;-1.65;80.43
25945;SHT31;13742;49.306;8.636;2022-12-19T00:49:37;-1.63;80.42
25945;SHT31;13742;49.306;8.636;2022-12-19T00:50:37;-1.68;80.41
25945;SHT31;13742;49.306;8.636;2022-12-19T00:51:37;-1.65;80.39
25945;SHT31;13742;49.306;8.636;2022-12-19T00:52:37;-1.66;80.42
25945;SHT31;13742;49.306;8.636;2022-12-19T00:53:37;-1.66;80.42
25945;SHT31;13742;49.306;8.636;2022-12-19T00:54:37;-1.66;80.32
25945;SHT31;13742;49.306;8.636;2022-12-19T00:55:37;-1.65;80.46
25945;SHT31;13742;49.306;8.636;2022-12-19T00:56:37;-1.61;80.72
25945;SHT31;13742;49.306;8.636;2022-12-19T00:57:37;-1.63;80.63
25945;SHT31;13742;49.306;8.636;2022-12-19T00:58:37;-1.65;80.50
25945;SHT31;13742;49.306;8.636;2022-12-19T00:59:37;-1.62;80.69
25945;SHT31;13742;49.306;8.636;2022-12-19T01:00:37;-1.62;80.45
25945;SHT31;13742;49.306;8.636;2022-12-19T01:01:39;-1.61;80.37
25945;SHT31;13742;49.306;8.636;2022-12-19T01:02:37;-1.61;80.60
25945;SHT31;13742;49.306;8.636;2022-12-19T01:03:37;-1.63;80.58
25945;SHT31;13742;49.306;8.636;2022-12-19T01:04:37;-1.63;80.54
25945;SHT31;13742;49.306;8.636;2022-12-19T01:05:37;-1.62;80.62
25945;SHT31;13742;49.306;8.636;2022-12-19T01:06:37;-1.62;80.48
25945;SHT31;13742;49.306;8.636;2022-12-19T01:07:37;-1.63;80.46
25945;SHT31;13742;49.306;8.636;2022-12-19T01:08:37;-1.59;80.46
25945;SHT31;13742;49.306;8.636;2022-12-19T01:09:37;-1.59;80.43
25945;SHT31;13742;49.306;8.636;2022-12-19T01:10:44;-1.62;80.48
25945;SHT31;13742;49.306;8.636;2022-12-19T01:11:42;-1.63;80.65
25945;SHT31;13742;49.306;8.636;2022-12-19T01:12:42;-1.63;80.63
25945;SHT31;13742;49.306;8.636;2022-12-19T01:13:39;-1.62;80.51
25945;SHT31;13742;49.306;8.636;2022-12-19T01:14:37;-1.61;80.42
25945;SHT31;13742;49.306;8.636;2022-12-19T01:15:38;-1.61;80.49
25945;SHT31;13742;49.306;8.636;2022-12-19T01:16:37;-1.59;80.57
25945;SHT31;13742;49.306;8.636;2022-12-19T01:17:37;-1.59;80.49
25945;SHT31;13742;49.306;8.636;2022-12-19T01:18:38;-1.61;80.52
25945;SHT31;13742;49.306;8.636;2022-12-19T01:19:37;-1.59;80.63
25945;SHT31;13742;49.306;8.636;2022-12-19T01:20:39;-1.61;80.48
25945;SHT31;13742;49.306;8.636;2022-12-19T01:21:37;-1.58;80.64
25945;SHT31;13742;49.306;8.636;2022-12-19T01:22:37;-1.56;80.69
25945;SHT31;13742;49.306;8.636;2022-12-19T01:23:37;-1.58;80.63
25945;SHT31;13742;49.306;8.636;2022-12-19T01:24:37;-1.55;80.64
25945;SHT31;13742;49.306;8.636;2022-12-19T01:25:37;-1.56;80.71
25945;SHT31;13742;49.306;8.636;2022-12-19T01:26:37;-1.56;80.61
25945;SHT31;13742;49.306;8.636;2022-12-19T01:27:37;-1.56;80.69
25945;SHT31;13742;49.306;8.636;2022-12-19T01:28:38;-1.54;80.61
25945;SHT31;13742;49.306;8.636;2022-12-19T01:29:37;-1.56;80.47
25945;SHT31;13742;49.306;8.636;2022-12-19T01:30:38;-1.56;80.57
25945;SHT31;13742;49.306;8.636;2022-12-19T01:31:37;-1.55;80.59
25945;SHT31;13742;49.306;8.636;2022-12-19T01:32:37;-1.55;80.63
25945;SHT31;13742;49.306;8.636;2022-12-19T01:33:37;-1.54;80.49
25945;SHT31;13742;49.306;8.636;2022-12-19T01:34:37;-1.56;80.63
25945;SHT31;13742;49.306;8.636;2022-12-19T01:35:38;-1.56;80.66
25945;SHT31;13742;49.306;8.636;2022-12-19T01:36:37;-1.56;80.62
25945;SHT31;13742;49.306;8.636;2022-12-19T01:37:37;-1.54;80.82
25945;SHT31;13742;49.306;8.636;2022-12-19T01:38:37;-1.55;80.81
25945;SHT31;13742;49.306;8.636;2022-12-19T01:39:37;-1.54;80.80
25945;SHT31;13742;49.306;8.636;2022-12-19T01:40:37;-1.55;80.68
25945;SHT31;13742;49.306;8.636;2022-12-19T01:41:37;-1.55;80.73
25945;SHT31;13742;49.306;8.636;2022-12-19T01:42:37;-1.54;80.81
25945;SHT31;13742;49.306;8.636;2022-12-19T01:44:37;-1.52;80.83
25945;SHT31;13742;49.306;8.636;2022-12-19T01:45:37;-1.55;80.67
25945;SHT31;13742;49.306;8.636;2022-12-19T01:46:41;-1.52;80.82
25945;SHT31;13742;49.306;8.636;2022-12-19T01:48:39;-1.52;80.89
25945;SHT31;13742;49.306;8.636;2022-12-19T01:49:37;-1.54;80.84
25945;SHT31;13742;49.306;8.636;2022-12-19T01:50:50;-1.52;80.85
25945;SHT31;13742;49.306;8.636;2022-12-19T01:51:43;-1.52;80.87
25945;SHT31;13742;49.306;8.636;2022-12-19T01:52:37;-1.52;80.78
25945;SHT31;13742;49.306;8.636;2022-12-19T01:53:43;-1.52;80.81
25945;SHT31;13742;49.306;8.636;2022-12-19T01:54:39;-1.54;80.65
25945;SHT31;13742;49.306;8.636;2022-12-19T01:55:38;-1.52;80.52
25945;SHT31;13742;49.306;8.636;2022-12-19T01:56:40;-1.49;80.72
25945;SHT31;13742;49.306;8.636;2022-12-19T01:57:37;-1.51;80.73
25945;SHT31;13742;49.306;8.636;2022-12-19T01:58:40;-1.51;80.79
25945;SHT31;13742;49.306;8.636;2022-12-19T01:59:42;-1.51;80.84
25945;SHT31;13742;49.306;8.636;2022-12-19T02:00:37;-1.49;80.48
25945;SHT31;13742;49.306;8.636;2022-12-19T02:01:39;-1.47;80.65
25945;SHT31;13742;49.306;8.636;2022-12-19T02:02:43;-1.45;80.54
25945;SHT31;13742;49.306;8.636;2022-12-19T02:03:39;-1.47;80.47
25945;SHT31;13742;49.306;8.636;2022-12-19T02:04:38;-1.47;80.56
25945;SHT31;13742;49.306;8.636;2022-12-19T02:05:38;-1.47;80.58
25945;SHT31;13742;49.306;8.636;2022-12-19T02:06:38;-1.44;80.65
25945;SHT31;13742;49.306;8.636;2022-12-19T02:07:38;-1.45;80.66
25945;SHT31;13742;49.306;8.636;2022-12-19T02:08:38;-1.45;80.58
25945;SHT31;13742;49.306;8.636;2022-12-19T02:09:37;-1.42;80.48
25945;SHT31;13742;49.306;8.636;2022-12-19T02:10:37;-1.41;80.45
25945;SHT31;13742;49.306;8.636;2022-12-19T02:11:37;-1.41;80.46
25945;SHT31;13742;49.306;8.636;2022-12-19T02:12:40;-1.45;80.46
25945;SHT31;13742;49.306;8.636;2022-12-19T02:13:37;-1.44;80.40
25945;SHT31;13742;49.306;8.636;2022-12-19T02:14:37;-1.44;80.55
25945;SHT31;13742;49.306;8.636;2022-12-19T02:15:48;-1.42;80.76
25945;SHT31;13742;49.306;8.636;2022-12-19T02:16:52;-1.42;80.30
25945;SHT31;13742;49.306;8.636;2022-12-19T02:21:00;-1.41;80.77
25945;SHT31;13742;49.306;8.636;2022-12-19T02:25:49;-1.38;80.37
25945;SHT31;13742;49.306;8.636;2022-12-19T02:30:49;-1.32;80.25
25945;SHT31;13742;49.306;8.636;2022-12-19T02:31:48;-1.31;80.22
25945;SHT31;13742;49.306;8.636;2022-12-19T02:33:44;-1.32;80.21
25945;SHT31;13742;49.306;8.636;2022-12-19T02:34:55;-1.31;80.11
25945;SHT31;13742;49.306;8.636;2022-12-19T02:35:44;-1.31;80.14
25945;SHT31;13742;49.306;8.636;2022-12-19T02:36:40;-1.30;80.36
25945;SHT31;13742;49.306;8.636;2022-12-19T02:37:47;-1.31;80.38
25945;SHT31;13742;49.306;8.636;2022-12-19T02:39:45;-1.28;80.28
25945;SHT31;13742;49.306;8.636;2022-12-19T02:40:44;-1.28;80.16
25945;SHT31;13742;49.306;8.636;2022-12-19T02:41:48;-1.30;80.14
25945;SHT31;13742;49.306;8.636;2022-12-19T02:42:41;-1.25;80.10
25945;SHT31;13742;49.306;8.636;2022-12-19T02:43:40;-1.27;80.21
25945;SHT31;13742;49.306;8.636;2022-12-19T02:44:44;-1.25;80.05
25945;SHT31;13742;49.306;8.636;2022-12-19T02:45:38;-1.24;80.21
25945;SHT31;13742;49.306;8.636;2022-12-19T02:46:37;-1.24;80.08
25945;SHT31;13742;49.306;8.636;2022-12-19T02:47:38;-1.21;79.84
25945;SHT31;13742;49.306;8.636;2022-12-19T02:48:37;-1.21;79.85
25945;SHT31;13742;49.306;8.636;2022-12-19T02:49:37;-1.20;79.85
25945;SHT31;13742;49.306;8.636;2022-12-19T02:50:42;-1.23;79.87
25945;SHT31;13742;49.306;8.636;2022-12-19T02:51:37;-1.21;79.97
25945;SHT31;13742;49.306;8.636;2022-12-19T02:52:44;-1.23;80.03
25945;SHT31;13742;49.306;8.636;2022-12-19T02:53:37;-1.18;80.03
25945;SHT31;13742;49.306;8.636;2022-12-19T02:54:37;-1.20;79.85
25945;SHT31;13742;49.306;8.636;2022-12-19T02:56:02;-1.18;79.96
25945;SHT31;13742;49.306;8.636;2022-12-19T02:56:45;-1.18;79.96
25945;SHT31;13742;49.306;8.636;2022-12-19T02:57:59;-1.16;80.06
25945;SHT31;13742;49.306;8.636;2022-12-19T02:58:43;-1.18;80.05
25945;SHT31;13742;49.306;8.636;2022-12-19T02:59:45;-1.14;80.01
25945;SHT31;13742;49.306;8.636;2022-12-19T03:00:48;-1.16;79.97
25945;SHT31;13742;49.306;8.636;2022-12-19T03:01:48;-1.14;79.59
25945;SHT31;13742;49.306;8.636;2022-12-19T03:02:46;-1.14;79.65
25945;SHT31;13742;49.306;8.636;2022-12-19T03:03:49;-1.14;79.83
25945;SHT31;13742;49.306;8.636;2022-12-19T03:06:46;-1.13;79.60
25945;SHT31;13742;49.306;8.636;2022-12-19T03:08:45;-1.09;79.67
25945;SHT31;13742;49.306;8.636;2022-12-19T03:10:44;-1.10;79.52
25945;SHT31;13742;49.306;8.636;2022-12-19T03:11:38;-1.09;79.60
25945;SHT31;13742;49.306;8.636;2022-12-19T03:12:44;-1.11;79.82
25945;SHT31;13742;49.306;8.636;2022-12-19T03:14:37;-1.10;79.68
25945;SHT31;13742;49.306;8.636;2022-12-19T03:15:38;-1.09;79.70
25945;SHT31;13742;49.306;8.636;2022-12-19T03:16:37;-1.09;79.82
25945;SHT31;13742;49.306;8.636;2022-12-19T03:17:37;-1.09;79.82
25945;SHT31;13742;49.306;8.636;2022-12-19T03:18:37;-1.07;79.87
25945;SHT31;13742;49.306;8.636;2022-12-19T03:19:38;-1.06;79.90
25945;SHT31;13742;49.306;8.636;2022-12-19T03:21:43;-1.07;79.76
25945;SHT31;13742;49.306;8.636;2022-12-19T03:22:37;-1.04;79.81
25945;SHT31;13742;49.306;8.636;2022-12-19T03:23:38;-1.04;79.69
25945;SHT31;13742;49.306;8.636;2022-12-19T03:24:37;-1.04;79.99
25945;SHT31;13742;49.306;8.636;2022-12-19T03:25:37;-1.04;79.85
25945;SHT31;13742;49.306;8.636;2022-12-19T03:26:45;-1.04;80.05
25945;SHT31;13742;49.306;8.636;2022-12-19T03:27:38;-1.04;80.05
25945;SHT31;13742;49.306;8.636;2022-12-19T03:29:42;-1.03;79.78
25945;SHT31;13742;49.306;8.636;2022-12-19T03:30:39;-1.00;79.77
25945;SHT31;13742;49.306;8.636;2022-12-19T03:31:38;-1.01;79.82
25945;SHT31;13742;49.306;8.636;2022-12-19T03:32:39;-1.00;79.68
25945;SHT31;13742;49.306;8.636;2022-12-19T03:33:38;-0.98;79.65
25945;SHT31;13742;49.306;8.636;2022-12-19T03:34:41;-0.98;79.80
25945;SHT31;13742;49.306;8.636;2022-12-19T03:35:38;-0.98;79.98
25945;SHT31;13742;49.306;8.636;2022-12-19T03:36:43;-0.96;79.96
25945;SHT31;13742;49.306;8.636;2022-12-19T03:37:40;-0.97;80.00
25945;SHT31;13742;49.306;8.636;2022-12-19T03:38:38;-0.93;79.93
25945;SHT31;13742;49.306;8.636;2022-12-19T03:39:39;-0.94;79.88
25945;SHT31;13742;49.306;8.636;2022-12-19T03:40:38;-0.97;79.77
25945;SHT31;13742;49.306;8.636;2022-12-19T03:41:43;-0.94;79.54
25945;SHT31;13742;49.306;8.636;2022-12-19T03:42:44;-0.96;79.60
25945;SHT31;13742;49.306;8.636;2022-12-19T03:43:38;-0.93;79.72
25945;SHT31;13742;49.306;8.636;2022-12-19T03:44:40;-0.91;79.77
25945;SHT31;13742;49.306;8.636;2022-12-19T03:46:41;-0.89;80.04
25945;SHT31;13742;49.306;8.636;2022-12-19T03:47:43;-0.89;80.19
25945;SHT31;13742;49.306;8.636;2022-12-19T03:48:43;-0.93;80.05
25945;SHT31;13742;49.306;8.636;2022-12-19T03:49:37;-0.93;80.35
25945;SHT31;13742;49.306;8.636;2022-12-19T03:50:45;-0.89;80.43
25945;SHT31;13742;49.306;8.636;2022-12-19T03:51:47;-0.90;80.52
25945;SHT31;13742;49.306;8.636;2022-12-19T03:53:45;-0.89;80.62
25945;SHT31;13742;49.306;8.636;2022-12-19T03:54:40;-0.87;80.69
25945;SHT31;13742;49.306;8.636;2022-12-19T03:55:41;-0.87;80.97
25945;SHT31;13742;49.306;8.636;2022-12-19T03:58:41;-0.89;80.98
25945;SHT31;13742;49.306;8.636;2022-12-19T03:59:45;-0.89;81.05
25945;SHT31;13742;49.306;8.636;2022-12-19T04:00:40;-0.89;81.21
25945;SHT31;13742;49.306;8.636;2022-12-19T04:01:37;-0.89;81.51
25945;SHT31;13742;49.306;8.636;2022-12-19T04:02:38;-0.87;81.95
25945;SHT31;13742;49.306;8.636;2022-12-19T04:03:37;-0.84;81.84
25945;SHT31;13742;49.306;8.636;2022-12-19T04:04:43;-0.86;81.70
25945;SHT31;13742;49.306;8.636;2022-12-19T04:05:39;-0.86;81.98
25945;SHT31;13742;49.306;8.636;2022-12-19T04:06:37;-0.84;81.96
25945;SHT31;13742;49.306;8.636;2022-12-19T04:07:38;-0.83;82.23
25945;SHT31;13742;49.306;8.636;2022-12-19T04:08:37;-0.84;82.20
25945;SHT31;13742;49.306;8.636;2022-12-19T04:09:40;-0.86;82.25
25945;SHT31;13742;49.306;8.636;2022-12-19T04:10:46;-0.81;82.33
25945;SHT31;13742;49.306;8.636;2022-12-19T04:11:40;-0.84;82.29
25945;SHT31;13742;49.306;8.636;2022-12-19T04:12:42;-0.83;82.38
25945;SHT31;13742;49.306;8.636;2022-12-19T04:14:37;-0.79;83.03
25945;SHT31;13742;49.306;8.636;2022-12-19T04:15:50;-0.80;83.11
25945;SHT31;13742;49.306;8.636;2022-12-19T04:17:45;-0.80;83.03
25945;SHT31;13742;49.306;8.636;2022-12-19T04:18:39;-0.77;83.35
25945;SHT31;13742;49.306;8.636;2022-12-19T04:19:47;-0.77;83.06
25945;SHT31;13742;49.306;8.636;2022-12-19T04:20:39;-0.79;83.41
25945;SHT31;13742;49.306;8.636;2022-12-19T04:21:44;-0.77;83.80
25945;SHT31;13742;49.306;8.636;2022-12-19T04:23:42;-0.77;83.65
25945;SHT31;13742;49.306;8.636;2022-12-19T04:24:39;-0.77;84.08
25945;SHT31;13742;49.306;8.636;2022-12-19T04:25:42;-0.76;84.54
25945;SHT31;13742;49.306;8.636;2022-12-19T04:26:37;-0.76;84.67
25945;SHT31;13742;49.306;8.636;2022-12-19T04:27:40;-0.73;84.28
25945;SHT31;13742;49.306;8.636;2022-12-19T04:28:42;-0.76;84.70
25945;SHT31;13742;49.306;8.636;2022-12-19T04:29:37;-0.76;84.66
25945;SHT31;13742;49.306;8.636;2022-12-19T04:30:39;-0.74;84.28
25945;SHT31;13742;49.306;8.636;2022-12-19T04:31:37;-0.74;84.61
25945;SHT31;13742;49.306;8.636;2022-12-19T04:32:38;-0.70;84.85
25945;SHT31;13742;49.306;8.636;2022-12-19T04:33:37;-0.70;84.83
25945;SHT31;13742;49.306;8.636;2022-12-19T04:34:37;-0.69;84.65
25945;SHT31;13742;49.306;8.636;2022-12-19T04:35:37;-0.72;84.69
25945;SHT31;13742;49.306;8.636;2022-12-19T04:36:37;-0.69;84.55
25945;SHT31;13742;49.306;8.636;2022-12-19T04:37:37;-0.68;84.52
25945;SHT31;13742;49.306;8.636;2022-12-19T04:38:37;-0.70;84.42
25945;SHT31;13742;49.306;8.636;2022-12-19T04:39:37;-0.66;84.66
25945;SHT31;13742;49.306;8.636;2022-12-19T04:40:37;-0.68;84.66
25945;SHT31;13742;49.306;8.636;2022-12-19T04:41:37;-0.66;84.83
25945;SHT31;13742;49.306;8.636;2022-12-19T04:42:37;-0.65;84.72
25945;SHT31;13742;49.306;8.636;2022-12-19T04:43:37;-0.66;84.76
25945;SHT31;13742;49.306;8.636;2022-12-19T04:44:37;-0.65;84.88
25945;SHT31;13742;49.306;8.636;2022-12-19T04:45:39;-0.63;84.71
25945;SHT31;13742;49.306;8.636;2022-12-19T04:46:37;-0.66;84.55
25945;SHT31;13742;49.306;8.636;2022-12-19T04:47:37;-0.66;84.78
25945;SHT31;13742;49.306;8.636;2022-12-19T04:48:37;-0.66;84.70
25945;SHT31;13742;49.306;8.636;2022-12-19T04:49:37;-0.66;84.79
25945;SHT31;13742;49.306;8.636;2022-12-19T04:50:37;-0.65;85.04
25945;SHT31;13742;49.306;8.636;2022-12-19T04:51:37;-0.63;85.03
25945;SHT31;13742;49.306;8.636;2022-12-19T04:52:37;-0.62;85.06
25945;SHT31;13742;49.306;8.636;2022-12-19T04:53:37;-0.59;85.02
25945;SHT31;13742;49.306;8.636;2022-12-19T04:54:37;-0.62;84.65
25945;SHT31;13742;49.306;8.636;2022-12-19T04:55:37;-0.60;84.70
25945;SHT31;13742;49.306;8.636;2022-12-19T04:56:37;-0.59;84.64
25945;SHT31;13742;49.306;8.636;2022-12-19T04:57:37;-0.60;84.80
25945;SHT31;13742;49.306;8.636;2022-12-19T04:58:37;-0.56;84.94
25945;SHT31;13742;49.306;8.636;2022-12-19T04:59:37;-0.59;84.75
25945;SHT31;13742;49.306;8.636;2022-12-19T05:00:37;-0.60;84.59
25945;SHT31;13742;49.306;8.636;2022-12-19T05:01:37;-0.62;84.78
25945;SHT31;13742;49.306;8.636;2022-12-19T05:02:37;-0.58;84.91
25945;SHT31;13742;49.306;8.636;2022-12-19T05:03:37;-0.59;85.02
25945;SHT31;13742;49.306;8.636;2022-12-19T05:04:37;-0.56;84.97
25945;SHT31;13742;49.306;8.636;2022-12-19T05:05:37;-0.59;85.00
25945;SHT31;13742;49.306;8.636;2022-12-19T05:06:37;-0.56;84.84
25945;SHT31;13742;49.306;8.636;2022-12-19T05:07:37;-0.59;84.64
25945;SHT31;13742;49.306;8.636;2022-12-19T05:08:38;-0.59;84.71
25945;SHT31;13742;49.306;8.636;2022-12-19T05:09:37;-0.59;84.84
25945;SHT31;13742;49.306;8.636;2022-12-19T05:10:37;-0.59;84.55
25945;SHT31;13742;49.306;8.636;2022-12-19T05:11:37;-0.56;84.79
25945;SHT31;13742;49.306;8.636;2022-12-19T05:12:37;-0.58;84.71
25945;SHT31;13742;49.306;8.636;2022-12-19T05:13:37;-0.59;84.87
25945;SHT31;13742;49.306;8.636;2022-12-19T05:14:37;-0.59;84.79
25945;SHT31;13742;49.306;8.636;2022-12-19T05:15:37;-0.60;84.65
25945;SHT31;13742;49.306;8.636;2022-12-19T05:16:37;-0.58;84.92
25945;SHT31;13742;49.306;8.636;2022-12-19T05:17:37;-0.60;85.11
25945;SHT31;13742;49.306;8.636;2022-12-19T05:18:37;-0.58;85.24
25945;SHT31;13742;49.306;8.636;2022-12-19T05:19:37;-0.58;85.17
25945;SHT31;13742;49.306;8.636;2022-12-19T05:20:37;-0.56;85.24
25945;SHT31;13742;49.306;8.636;2022-12-19T05:21:37;-0.56;85.39
25945;SHT31;13742;49.306;8.636;2022-12-19T05:22:37;-0.56;85.21
25945;SHT31;13742;49.306;8.636;2022-12-19T05:23:37;-0.56;85.30
25945;SHT31;13742;49.306;8.636;2022-12-19T05:24:37;-0.56;85.23
25945;SHT31;13742;49.306;8.636;2022-12-19T05:25:37;-0.56;85.14
25945;SHT31;13742;49.306;8.636;2022-12-19T05:26:37;-0.56;85.19
25945;SHT31;13742;49.306;8.636;2022-12-19T05:27:37;-0.55;85.28
25945;SHT31;13742;49.306;8.636;2022-12-19T05:28:37;-0.55;85.48
25945;SHT31;13742;49.306;8.636;2022-12-19T05:29:37;-0.56;85.44
25945;SHT31;13742;49.306;8.636;2022-12-19T05:30:37;-0.53;85.35
25945;SHT31;13742;49.306;8.636;2022-12-19T05:31:37;-0.53;85.48
25945;SHT31;13742;49.306;8.636;2022-12-19T05:32:37;-0.53;85.51
25945;SHT31;13742;49.306;8.636;2022-12-19T05:33:37;-0.52;85.53
25945;SHT31;13742;49.306;8.636;2022-12-19T05:34:37;-0.53;85.33
25945;SHT31;13742;49.306;8.636;2022-12-19T05:35:37;-0.52;85.34
25945;SHT31;13742;49.306;8.636;2022-12-19T05:36:37;-0.52;85.41
25945;SHT31;13742;49.306;8.636;2022-12-19T05:37:37;-0.52;85.29
25945;SHT31;13742;49.306;8.636;2022-12-19T05:38:37;-0.52;85.15
25945;SHT31;13742;49.306;8.636;2022-12-19T05:39:37;-0.49;85.42
25945;SHT31;13742;49.306;8.636;2022-12-19T05:40:37;-0.49;85.38
25945;SHT31;13742;49.306;8.636;2022-12-19T05:41:37;-0.52;85.10
25945;SHT31;13742;49.306;8.636;2022-12-19T05:42:37;-0.50;85.27
25945;SHT31;13742;49.306;8.636;2022-12-19T05:43:37;-0.49;85.27
25945;SHT31;13742;49.306;8.636;2022-12-19T05:44:37;-0.46;85.27
25945;SHT31;13742;49.306;8.636;2022-12-19T05:45:38;-0.48;85.54
25945;SHT31;13742;49.306;8.636;2022-12-19T05:46:37;-0.48;85.43
25945;SHT31;13742;49.306;8.636;2022-12-19T05:47:37;-0.46;85.37
25945;SHT31;13742;49.306;8.636;2022-12-19T05:48:37;-0.46;85.47
25945;SHT31;13742;49.306;8.636;2022-12-19T05:49:37;-0.45;85.43
25945;SHT31;13742;49.306;8.636;2022-12-19T05:50:37;-0.46;85.39
25945;SHT31;13742;49.306;8.636;2022-12-19T05:51:37;-0.45;85.25
25945;SHT31;13742;49.306;8.636;2022-12-19T05:52:37;-0.45;85.24
25945;SHT31;13742;49.306;8.636;2022-12-19T05:53:38;-0.43;85.37
25945;SHT31;13742;49.306;8.636;2022-12-19T05:54:37;-0.43;85.41
25945;SHT31;13742;49.306;8.636;2022-12-19T05:55:37;-0.43;85.52
25945;SHT31;13742;49.306;8.636;2022-12-19T05:56:37;-0.43;85.52
25945;SHT31;13742;49.306;8.636;2022-12-19T05:57:37;-0.43;85.49
25945;SHT31;13742;49.306;8.636;2022-12-19T05:58:37;-0.43;85.36
25945;SHT31;13742;49.306;8.636;2022-12-19T05:59:37;-0.45;85.28
25945;SHT31;13742;49.306;8.636;2022-12-19T06:00:37;-0.43;85.36
25945;SHT31;13742;49.306;8.636;2022-12-19T06:01:37;-0.42;85.37
25945;SHT31;13742;49.306;8.636;2022-12-19T06:02:37;-0.42;85.40
25945;SHT31;13742;49.306;8.636;2022-12-19T06:03:37;-0.42;85.34
25945;SHT31;13742;49.306;8.636;2022-12-19T06:04:37;-0.42;85.33
25945;SHT31;13742;49.306;8.636;2022-12-19T06:05:37;-0.41;85.41
25945;SHT31;13742;49.306;8.636;2022-12-19T06:06:37;-0.42;85.33
25945;SHT31;13742;49.306;8.636;2022-12-19T06:07:37;-0.41;85.38
25945;SHT31;13742;49.306;8.636;2022-12-19T06:08:37;-0.41;85.38
25945;SHT31;13742;49.306;8.636;2022-12-19T06:09:37;-0.38;85.36
25945;SHT31;13742;49.306;8.636;2022-12-19T06:10:37;-0.39;85.49
25945;SHT31;13742;49.306;8.636;2022-12-19T06:11:37;-0.39;85.35
25945;SHT31;13742;49.306;8.636;2022-12-19T06:12:37;-0.41;85.51
25945;SHT31;13742;49.306;8.636;2022-12-19T06:13:37;-0.41;85.54
25945;SHT31;13742;49.306;8.636;2022-12-19T06:14:37;-0.39;85.79
25945;SHT31;13742;49.306;8.636;2022-12-19T06:15:37;-0.39;85.88
25945;SHT31;13742;49.306;8.636;2022-12-19T06:16:37;-0.38;85.90
25945;SHT31;13742;49.306;8.636;2022-12-19T06:17:37;-0.35;85.66
25945;SHT31;13742;49.306;8.636;2022-12-19T06:18:37;-0.35;85.57
25945;SHT31;13742;49.306;8.636;2022-12-19T06:19:37;-0.37;85.81
25945;SHT31;13742;49.306;8.636;2022-12-19T06:20:37;-0.37;85.87
25945;SHT31;13742;49.306;8.636;2022-12-19T06:21:37;-0.37;85.84
25945;SHT31;13742;49.306;8.636;2022-12-19T06:22:37;-0.37;85.83
25945;SHT31;13742;49.306;8.636;2022-12-19T06:23:37;-0.35;85.88
25945;SHT31;13742;49.306;8.636;2022-12-19T06:24:37;-0.34;85.93
25945;SHT31;13742;49.306;8.636;2022-12-19T06:25:37;-0.35;85.72
25945;SHT31;13742;49.306;8.636;2022-12-19T06:26:37;-0.32;85.90
25945;SHT31;13742;49.306;8.636;2022-12-19T06:27:37;-0.31;85.94
25945;SHT31;13742;49.306;8.636;2022-12-19T06:28:37;-0.29;85.94
25945;SHT31;13742;49.306;8.636;2022-12-19T06:29:37;-0.29;85.75
25945;SHT31;13742;49.306;8.636;2022-12-19T06:30:37;-0.29;85.83
25945;SHT31;13742;49.306;8.636;2022-12-19T06:31:37;-0.29;85.75
25945;SHT31;13742;49.306;8.636;2022-12-19T06:32:37;-0.28;85.66
25945;SHT31;13742;49.306;8.636;2022-12-19T06:33:37;-0.28;85.74
25945;SHT31;13742;49.306;8.636;2022-12-19T06:34:37;-0.28;85.81
25945;SHT31;13742;49.306;8.636;2022-12-19T06:35:36;-0.28;85.82
25945;SHT31;13742;49.306;8.636;2022-12-19T06:36:40;-0.25;85.81
25945;SHT31;13742;49.306;8.636;2022-12-19T06:37:37;-0.27;85.78
25945;SHT31;13742;49.306;8.636;2022-12-19T06:38:37;-0.24;85.89
25945;SHT31;13742;49.306;8.636;2022-12-19T06:39:37;-0.22;85.76
25945;SHT31;13742;49.306;8.636;2022-12-19T06:40:42;-0.25;85.89
25945;SHT31;13742;49.306;8.636;2022-12-19T06:41:42;-0.22;85.90
25945;SHT31;13742;49.306;8.636;2022-12-19T06:42:36;-0.20;85.93
25945;SHT31;13742;49.306;8.636;2022-12-19T06:43:37;-0.15;85.52
25945;SHT31;13742;49.306;8.636;2022-12-19T06:44:37;-0.13;85.26
25945;SHT31;13742;49.306;8.636;2022-12-19T06:45:36;-0.07;85.47
25945;SHT31;13742;49.306;8.636;2022-12-19T06:46:37;-0.03;85.58
25945;SHT31;13742;49.306;8.636;2022-12-19T06:47:37;0.02;85.25